Accueil
METAR-TAF:

METAR-TAF

Aéroports :

Deer Park Airport

Deer Park, Washington, États-Unis

latitude: 47-58-27N, longitude: 117-25-42W, altitude: 672 m

Observation

Le bulletin a été fait il y a 23 minutes, à 22:53 UTC
Vent 8 kt de sud/sud-ouest avec des rafales jusqu'à 14 kt
Température 23°C
Humidité 36%
Pression 1014 hPa
Visibilité: 16.1 km
Ciel clair

METAR: KDEW 262253Z AUTO 21008G14KT 10SM CLR 23/07 A2993 RMK AO2 SLP125 T02330067

Heure: 16:16 (23:16 UTC)


TAF: absent

Observations et prévisions météorologiques de plus de 4000 aéroports (messages METAR et TAF).

Les stations disponibles sont représentées par des disques jaunes et rouges sur la carte.

Passer la souris dessus pour voir le nom de la station.

Cliquer dessus pour voir les observations et prévisions météorologiques.

Pour changer de carte: cliquez sur les boutons verts avec une croix noire pour zoomer, sur le bouton vert avec un tiret pour effectuer un zoom arrière, ou sur les flèches vertes pour les cartes adjacentes.


METAR-TAF: